Time;durP1;ratioP1;P1;durP2;ratioP2;P2;SDS_P1;SDS_P2;PMS_P1;PMS_P2;Temp;Humidity;BMP_temperature;BMP_pressure;BME280_temperature;BME280_humidity;BME280_pressure;Samples;Min_cycle;Max_cycle;Signal;HPM_P1;HPM_P2
2024/01/20 00:01:07;;;;;;;11.20;5.80;;;0.10;99.90;;;;;;5157090;28;20660;-48
2024/01/20 00:03:38;;;;;;;16.60;7.53;;;0.10;99.90;;;;;;5160934;28;20280;-48
2024/01/20 00:06:08;;;;;;;13.57;6.27;;;0.00;99.90;;;;;;5162663;28;20309;-50
2024/01/20 00:08:39;;;;;;;9.63;5.43;;;0.10;99.90;;;;;;5136218;28;20215;-49
2024/01/20 00:11:10;;;;;;;14.33;7.37;;;0.20;99.90;;;;;;5158847;28;20947;-50
2024/01/20 00:13:40;;;;;;;10.77;6.37;;;0.10;99.90;;;;;;5159081;28;20181;-49
2024/01/20 00:16:11;;;;;;;19.20;7.30;;;0.10;99.90;;;;;;5156227;28;20186;-46
2024/01/20 00:18:41;;;;;;;11.43;6.80;;;0.10;99.90;;;;;;5158655;28;20240;-52
2024/01/20 00:21:12;;;;;;;15.80;6.60;;;-0.10;99.90;;;;;;5159289;28;20192;-48
2024/01/20 00:23:43;;;;;;;19.97;6.70;;;-0.10;99.90;;;;;;5158699;28;20212;-50
2024/01/20 00:26:13;;;;;;;9.50;6.37;;;-0.10;99.90;;;;;;5152315;28;20185;-49
2024/01/20 00:28:44;;;;;;;17.03;8.13;;;-0.20;99.90;;;;;;5155477;28;20561;-47
2024/01/20 00:31:15;;;;;;;14.50;7.40;;;-0.30;99.90;;;;;;5155523;28;20197;-48
2024/01/20 00:33:46;;;;;;;19.10;6.87;;;-0.20;99.90;;;;;;5156342;28;20182;-49
2024/01/20 00:36:16;;;;;;;14.10;6.93;;;-0.30;99.90;;;;;;5159838;28;20788;-48
2024/01/20 00:38:47;;;;;;;19.73;7.43;;;-0.20;99.90;;;;;;5147644;28;20216;-48
2024/01/20 00:41:18;;;;;;;16.43;6.50;;;-0.10;99.90;;;;;;5153717;28;20213;-47
2024/01/20 00:43:48;;;;;;;8.97;6.80;;;-0.10;99.90;;;;;;5160306;28;20569;-47
2024/01/20 00:46:20;;;;;;;10.03;6.37;;;0.10;99.90;;;;;;5145548;28;20441;-49
2024/01/20 00:48:50;;;;;;;14.80;5.67;;;0.10;99.90;;;;;;5134355;28;20198;-48
2024/01/20 00:51:21;;;;;;;10.10;5.83;;;0.10;99.90;;;;;;5156722;28;20439;-49
2024/01/20 00:53:52;;;;;;;12.33;6.33;;;0.30;99.90;;;;;;5244385;28;20277;-48
2024/01/20 00:56:22;;;;;;;9.07;6.27;;;0.20;99.90;;;;;;5158711;28;20536;-47
2024/01/20 00:58:53;;;;;;;14.03;6.20;;;0.20;99.90;;;;;;5159596;28;20218;-47
2024/01/20 01:01:23;;;;;;;9.30;6.30;;;0.20;99.90;;;;;;5131923;28;20276;-49
2024/01/20 01:03:54;;;;;;;20.53;6.57;;;0.20;99.90;;;;;;5148654;28;20692;-48
2024/01/20 01:06:24;;;;;;;18.73;7.03;;;0.10;99.90;;;;;;5159928;28;20273;-50
2024/01/20 01:08:55;;;;;;;11.23;5.87;;;0.00;99.90;;;;;;5151518;28;20247;-48
2024/01/20 01:11:26;;;;;;;15.40;6.40;;;-0.10;99.90;;;;;;5155757;28;20181;-48
2024/01/20 01:13:56;;;;;;;11.67;6.47;;;-0.10;99.90;;;;;;5154625;28;20187;-50
2024/01/20 01:16:27;;;;;;;17.40;8.00;;;-0.10;99.90;;;;;;5228160;28;20201;-49
2024/01/20 01:18:58;;;;;;;14.87;7.23;;;-0.10;99.90;;;;;;5160057;28;20238;-47
2024/01/20 01:21:28;;;;;;;11.33;5.50;;;-0.20;99.90;;;;;;5156604;28;20186;-47
2024/01/20 01:23:59;;;;;;;14.80;7.20;;;-0.20;99.90;;;;;;5139013;28;20203;-48
2024/01/20 01:26:30;;;;;;;9.80;6.90;;;-0.10;99.90;;;;;;5157432;28;20183;-47
2024/01/20 01:29:00;;;;;;;13.63;6.77;;;0.00;99.90;;;;;;5159576;28;20211;-47
2024/01/20 01:31:31;;;;;;;11.00;6.20;;;0.00;99.90;;;;;;5143571;28;20194;-47
2024/01/20 01:34:02;;;;;;;13.77;7.43;;;0.00;99.90;;;;;;5132464;28;20222;-47
2024/01/20 01:36:32;;;;;;;10.40;7.10;;;0.10;99.90;;;;;;5147923;28;20541;-47
2024/01/20 01:39:03;;;;;;;16.93;7.23;;;0.20;99.90;;;;;;5246763;28;20291;-47
2024/01/20 01:41:34;;;;;;;19.17;6.70;;;0.20;99.90;;;;;;5162327;28;20179;-47
2024/01/20 01:44:04;;;;;;;9.90;6.60;;;0.30;99.90;;;;;;5158505;28;20297;-48
2024/01/20 01:46:36;;;;;;;17.80;7.37;;;0.30;99.90;;;;;;5242249;28;20211;-48
2024/01/20 01:49:07;;;;;;;12.30;7.03;;;0.30;99.90;;;;;;5154531;28;20194;-48
2024/01/20 01:51:38;;;;;;;14.80;6.57;;;0.30;99.90;;;;;;5154836;28;20439;-48
2024/01/20 01:54:08;;;;;;;11.40;6.90;;;0.30;99.90;;;;;;5160897;28;21163;-46
2024/01/20 01:56:41;;;;;;;12.97;7.40;;;0.20;99.90;;;;;;5139996;28;20446;-50
2024/01/20 01:59:14;;;;;;;10.43;6.83;;;0.10;99.90;;;;;;5158141;28;20750;-48
2024/01/20 02:01:44;;;;;;;17.40;7.80;;;0.00;99.90;;;;;;5155651;28;20544;-48
2024/01/20 02:04:15;;;;;;;16.60;8.20;;;0.00;99.90;;;;;;5157533;28;20945;-49
2024/01/20 02:06:46;;;;;;;16.03;7.30;;;0.00;99.90;;;;;;5162667;28;20214;-49
2024/01/20 02:09:17;;;;;;;18.73;7.87;;;0.00;99.90;;;;;;5154294;28;20517;-47
2024/01/20 02:11:48;;;;;;;10.93;7.40;;;0.00;99.90;;;;;;5159236;28;20182;-47
2024/01/20 02:14:20;;;;;;;14.93;7.43;;;-0.10;99.90;;;;;;5151245;28;20790;-49
2024/01/20 02:16:51;;;;;;;10.03;6.00;;;-0.10;99.90;;;;;;5154275;28;20444;-48
2024/01/20 02:19:21;;;;;;;11.70;7.60;;;0.00;99.90;;;;;;5148843;28;20449;-48
2024/01/20 02:21:52;;;;;;;13.73;7.50;;;-0.10;99.90;;;;;;5151705;28;20449;-48
2024/01/20 02:24:23;;;;;;;9.70;7.03;;;-0.20;99.90;;;;;;5156456;28;20673;-48
2024/01/20 02:26:53;;;;;;;14.47;7.27;;;-0.10;99.90;;;;;;5243366;28;20192;-48
2024/01/20 02:29:24;;;;;;;9.87;6.73;;;-0.20;99.90;;;;;;5153595;28;20223;-50
2024/01/20 02:31:54;;;;;;;14.60;7.87;;;-0.20;99.90;;;;;;5157465;28;21073;-48
2024/01/20 02:34:26;;;;;;;12.00;7.50;;;0.00;99.90;;;;;;5161841;28;20226;-48
2024/01/20 02:36:57;;;;;;;15.03;8.43;;;0.00;99.90;;;;;;5161334;28;20272;-48
2024/01/20 02:39:28;;;;;;;15.70;7.40;;;0.00;99.90;;;;;;5156257;28;21032;-50
2024/01/20 02:41:58;;;;;;;17.43;8.57;;;-0.10;99.90;;;;;;5158739;28;20215;-49
2024/01/20 02:44:29;;;;;;;12.60;7.50;;;-0.10;99.90;;;;;;5142118;28;20222;-48
2024/01/20 02:47:00;;;;;;;16.47;8.83;;;-0.10;99.90;;;;;;5153656;28;20173;-49
2024/01/20 02:49:31;;;;;;;11.93;7.53;;;0.00;99.90;;;;;;5154491;28;20261;-49
2024/01/20 02:52:01;;;;;;;12.33;7.97;;;0.00;99.90;;;;;;5158186;28;21599;-47
2024/01/20 02:54:32;;;;;;;13.63;8.70;;;0.10;99.90;;;;;;5152924;28;20451;-49
2024/01/20 02:57:03;;;;;;;23.60;8.87;;;0.10;99.90;;;;;;5155821;28;20568;-50
2024/01/20 02:59:34;;;;;;;19.40;8.53;;;0.10;99.90;;;;;;5152058;28;20630;-48
2024/01/20 03:02:05;;;;;;;15.43;8.13;;;0.10;99.90;;;;;;5153039;28;20500;-48
2024/01/20 03:04:35;;;;;;;17.03;8.10;;;0.10;99.90;;;;;;5153045;28;20201;-47
2024/01/20 03:07:06;;;;;;;17.70;8.50;;;0.10;99.90;;;;;;5239110;28;20504;-48
2024/01/20 03:09:36;;;;;;;13.43;7.93;;;0.00;99.90;;;;;;5146493;28;20191;-47
2024/01/20 03:12:07;;;;;;;19.50;8.43;;;0.10;99.90;;;;;;5161794;28;20185;-49
2024/01/20 03:14:38;;;;;;;17.47;7.50;;;0.10;99.90;;;;;;5154318;28;20190;-48
2024/01/20 03:17:08;;;;;;;12.47;7.60;;;0.00;99.90;;;;;;5156715;28;20541;-50
2024/01/20 03:19:39;;;;;;;12.23;8.47;;;0.20;99.90;;;;;;5159345;28;20196;-47
2024/01/20 03:22:09;;;;;;;16.50;8.37;;;0.20;99.90;;;;;;5160593;28;20242;-47
2024/01/20 03:24:40;;;;;;;17.50;8.37;;;0.20;99.90;;;;;;5156810;28;20208;-47
2024/01/20 03:27:11;;;;;;;14.43;7.63;;;0.10;99.90;;;;;;5154985;28;20318;-47
2024/01/20 03:29:41;;;;;;;19.20;9.00;;;0.10;99.90;;;;;;5157721;28;20184;-47
2024/01/20 03:32:12;;;;;;;14.47;8.33;;;0.10;99.90;;;;;;5155627;28;20644;-49
2024/01/20 03:34:43;;;;;;;17.10;10.13;;;0.10;99.90;;;;;;5158077;28;20177;-49
2024/01/20 03:37:13;;;;;;;10.77;7.97;;;0.20;99.90;;;;;;5136941;28;20460;-48
2024/01/20 03:39:44;;;;;;;16.57;8.50;;;0.20;99.90;;;;;;5149559;28;20181;-48
2024/01/20 03:42:15;;;;;;;19.80;8.77;;;0.10;99.90;;;;;;5153063;28;20185;-47
2024/01/20 03:44:45;;;;;;;16.70;9.87;;;0.10;99.90;;;;;;5153179;28;20635;-49
2024/01/20 03:47:16;;;;;;;15.13;8.27;;;0.10;99.90;;;;;;5241883;28;20205;-48
2024/01/20 03:49:46;;;;;;;12.33;8.70;;;0.00;99.90;;;;;;5154262;28;20278;-46
2024/01/20 03:52:17;;;;;;;12.67;8.80;;;0.10;99.90;;;;;;5154108;28;20187;-49
2024/01/20 03:54:48;;;;;;;20.10;9.10;;;0.10;99.90;;;;;;5153811;28;20176;-48
2024/01/20 03:57:18;;;;;;;20.13;10.60;;;0.20;99.90;;;;;;5157776;28;20218;-48
2024/01/20 03:59:49;;;;;;;32.30;9.90;;;0.20;99.90;;;;;;5151844;28;20274;-48
2024/01/20 04:02:20;;;;;;;14.87;9.40;;;0.30;99.90;;;;;;5153336;28;20666;-48
2024/01/20 04:04:50;;;;;;;16.77;8.80;;;0.30;99.90;;;;;;5161059;28;20177;-49
2024/01/20 04:07:21;;;;;;;22.07;9.77;;;0.50;99.90;;;;;;5155743;28;20197;-48
2024/01/20 04:09:52;;;;;;;13.43;8.67;;;0.50;99.90;;;;;;5153285;28;20208;-47
2024/01/20 04:12:22;;;;;;;16.87;8.53;;;0.60;99.90;;;;;;5152157;28;20262;-48
2024/01/20 04:14:55;;;;;;;15.20;8.93;;;0.70;99.90;;;;;;5163734;28;20517;-48
2024/01/20 04:17:26;;;;;;;18.87;9.70;;;0.60;99.90;;;;;;5156339;28;20237;-50
2024/01/20 04:19:56;;;;;;;22.83;9.93;;;0.70;99.90;;;;;;5157046;28;20434;-49
2024/01/20 04:22:27;;;;;;;16.33;9.33;;;0.60;99.90;;;;;;5154522;28;20187;-47
2024/01/20 04:24:57;;;;;;;18.83;10.00;;;0.50;99.90;;;;;;5150914;28;20215;-47
2024/01/20 04:27:28;;;;;;;16.83;8.53;;;0.50;99.90;;;;;;5155496;28;21092;-49
2024/01/20 04:29:59;;;;;;;14.70;9.30;;;0.30;99.90;;;;;;5153833;28;20188;-47
2024/01/20 04:32:30;;;;;;;16.73;10.37;;;0.30;99.90;;;;;;5151667;28;20326;-47
2024/01/20 04:35:00;;;;;;;15.50;9.00;;;0.20;99.90;;;;;;5152954;28;20433;-47
2024/01/20 04:37:31;;;;;;;18.53;9.73;;;0.20;99.90;;;;;;5154825;28;20336;-48
2024/01/20 04:40:01;;;;;;;15.07;9.40;;;0.20;99.90;;;;;;5137509;28;20197;-50
2024/01/20 04:42:32;;;;;;;19.03;10.10;;;0.20;99.90;;;;;;5155430;28;20192;-49
2024/01/20 04:45:04;;;;;;;13.97;9.00;;;0.10;99.90;;;;;;5154437;28;20185;-50
2024/01/20 04:47:35;;;;;;;16.20;9.67;;;0.20;99.90;;;;;;5232524;28;20211;-50
2024/01/20 04:50:06;;;;;;;21.23;10.07;;;0.30;99.90;;;;;;5157022;28;20504;-49
2024/01/20 04:52:37;;;;;;;20.50;9.37;;;0.40;99.90;;;;;;5156203;28;20189;-50
2024/01/20 04:55:08;;;;;;;13.77;8.93;;;0.30;99.90;;;;;;5154232;28;20420;-49
2024/01/20 04:57:38;;;;;;;17.03;9.87;;;0.20;99.90;;;;;;5159032;28;20704;-48
2024/01/20 05:00:09;;;;;;;15.43;9.53;;;0.20;99.90;;;;;;5152805;28;20436;-48
2024/01/20 05:02:40;;;;;;;15.80;9.37;;;0.20;99.90;;;;;;5152777;28;20206;-48
2024/01/20 05:05:11;;;;;;;13.00;9.40;;;0.10;99.90;;;;;;5155095;28;20189;-48
2024/01/20 05:07:41;;;;;;;14.20;9.17;;;0.20;99.90;;;;;;5160779;28;20203;-49
2024/01/20 05:10:12;;;;;;;15.47;10.40;;;0.00;99.90;;;;;;5151175;28;20178;-48
2024/01/20 05:12:43;;;;;;;14.80;9.50;;;-0.10;99.90;;;;;;5157178;28;20202;-48
2024/01/20 05:15:14;;;;;;;19.00;9.00;;;-0.20;99.90;;;;;;5156254;28;20444;-49
2024/01/20 05:17:44;;;;;;;15.67;9.10;;;-0.10;99.90;;;;;;5159111;28;20603;-49
2024/01/20 05:20:15;;;;;;;17.37;9.33;;;-0.10;99.90;;;;;;5157363;28;20295;-49
2024/01/20 05:22:45;;;;;;;19.20;9.50;;;0.00;99.90;;;;;;5159894;28;20227;-49
2024/01/20 05:25:16;;;;;;;19.20;10.20;;;0.10;99.90;;;;;;5154758;28;20240;-48
2024/01/20 05:27:47;;;;;;;16.80;10.23;;;0.20;99.90;;;;;;5156942;28;20298;-49
2024/01/20 05:30:17;;;;;;;16.50;8.50;;;0.20;99.90;;;;;;5156545;28;20298;-49
2024/01/20 05:32:48;;;;;;;17.53;10.17;;;0.10;99.90;;;;;;5155045;28;20185;-49
2024/01/20 05:35:18;;;;;;;22.50;10.23;;;0.20;99.90;;;;;;5157708;28;20192;-50
2024/01/20 05:37:49;;;;;;;20.90;10.33;;;0.20;99.90;;;;;;5159434;28;20212;-50
2024/01/20 05:40:20;;;;;;;20.77;9.30;;;0.10;99.90;;;;;;5154565;28;20194;-48
2024/01/20 05:42:51;;;;;;;18.67;9.50;;;0.00;99.90;;;;;;5244918;28;20254;-50
2024/01/20 05:45:21;;;;;;;29.20;9.33;;;0.10;99.90;;;;;;5159442;28;20186;-49
2024/01/20 05:47:52;;;;;;;17.40;10.30;;;0.10;99.90;;;;;;5150229;28;20202;-49
2024/01/20 05:50:22;;;;;;;16.80;9.67;;;0.10;99.90;;;;;;5137072;28;20188;-50
2024/01/20 05:52:53;;;;;;;19.80;10.87;;;0.10;99.90;;;;;;5153780;28;20187;-50
2024/01/20 05:55:24;;;;;;;20.23;9.77;;;0.20;99.90;;;;;;5157314;28;20184;-50
2024/01/20 05:57:54;;;;;;;16.77;9.57;;;0.30;99.90;;;;;;5154437;28;20201;-50
2024/01/20 06:00:25;;;;;;;20.83;9.97;;;0.20;99.90;;;;;;5154969;28;20441;-49
2024/01/20 06:02:55;;;;;;;16.97;10.60;;;0.10;99.90;;;;;;5157311;28;20217;-51
2024/01/20 06:05:26;;;;;;;18.63;9.80;;;0.10;99.90;;;;;;5158051;28;20188;-48
2024/01/20 06:07:57;;;;;;;18.93;10.87;;;0.10;99.90;;;;;;5153923;28;20288;-49
2024/01/20 06:10:27;;;;;;;24.63;11.87;;;0.20;99.90;;;;;;5153216;28;20269;-50
2024/01/20 06:12:58;;;;;;;13.10;9.27;;;0.20;99.90;;;;;;5151044;28;20190;-49
2024/01/20 06:15:28;;;;;;;12.33;9.27;;;0.10;99.90;;;;;;5154508;28;20177;-49
2024/01/20 06:17:59;;;;;;;17.20;9.77;;;0.20;99.90;;;;;;5155993;28;20719;-50
2024/01/20 06:20:30;;;;;;;19.17;9.37;;;0.10;99.90;;;;;;5156849;28;20244;-48
2024/01/20 06:23:00;;;;;;;15.47;9.67;;;0.30;99.90;;;;;;5158724;28;20209;-50
2024/01/20 06:25:31;;;;;;;15.83;9.33;;;0.10;99.90;;;;;;5157298;28;20191;-48
2024/01/20 06:28:03;;;;;;;18.53;10.07;;;0.20;99.90;;;;;;5158380;28;20205;-48
2024/01/20 06:30:33;;;;;;;14.70;8.70;;;0.00;99.90;;;;;;5154560;28;20433;-49
2024/01/20 06:33:04;;;;;;;16.83;8.60;;;0.10;99.90;;;;;;5153136;28;20797;-51
2024/01/20 06:35:35;;;;;;;17.97;10.03;;;0.10;99.90;;;;;;5153729;28;20196;-48
2024/01/20 06:38:06;;;;;;;14.37;9.37;;;0.10;99.90;;;;;;5156179;28;20202;-48
2024/01/20 06:40:36;;;;;;;14.90;9.30;;;0.10;99.90;;;;;;5155447;28;20195;-48
2024/01/20 06:43:09;;;;;;;21.80;10.33;;;0.20;99.90;;;;;;5237857;28;20462;-49
2024/01/20 06:45:39;;;;;;;16.73;10.27;;;0.10;99.90;;;;;;5155490;28;20177;-49
2024/01/20 06:48:10;;;;;;;19.10;9.87;;;0.10;99.90;;;;;;5155149;28;20468;-49
2024/01/20 06:50:43;;;;;;;20.63;9.80;;;0.00;99.90;;;;;;5159761;28;20206;-49
2024/01/20 06:53:13;;;;;;;18.07;10.93;;;0.00;99.90;;;;;;5154385;28;20194;-48
2024/01/20 06:55:44;;;;;;;14.10;8.97;;;-0.20;99.90;;;;;;5154133;28;20439;-49
2024/01/20 06:58:15;;;;;;;20.80;10.80;;;-0.20;99.90;;;;;;5156071;28;20208;-48
2024/01/20 07:00:45;;;;;;;15.60;9.20;;;0.00;99.90;;;;;;5154326;28;20315;-48
2024/01/20 07:03:16;;;;;;;23.03;9.93;;;0.00;99.90;;;;;;5155424;28;20215;-48
2024/01/20 07:05:47;;;;;;;20.50;10.23;;;0.20;99.90;;;;;;5149084;28;20213;-48
2024/01/20 07:08:18;;;;;;;19.20;10.20;;;0.00;99.90;;;;;;5156309;28;20468;-48
2024/01/20 07:10:49;;;;;;;14.90;8.73;;;0.10;99.90;;;;;;5151428;28;20637;-48
2024/01/20 07:13:20;;;;;;;21.23;9.83;;;0.00;99.90;;;;;;5151104;28;20497;-48
2024/01/20 07:15:50;;;;;;;18.60;11.23;;;0.00;99.90;;;;;;5155497;28;20665;-49
2024/01/20 07:18:21;;;;;;;21.07;10.37;;;0.00;99.90;;;;;;5156957;28;20220;-49
2024/01/20 07:20:52;;;;;;;16.87;10.40;;;0.00;99.90;;;;;;5153610;28;20192;-49
2024/01/20 07:23:23;;;;;;;18.90;9.70;;;0.10;99.90;;;;;;5151678;28;20268;-50
2024/01/20 07:25:53;;;;;;;19.27;10.90;;;0.30;99.90;;;;;;5151493;28;20861;-52
2024/01/20 07:28:27;;;;;;;17.37;9.50;;;0.40;99.90;;;;;;5152936;28;20837;-49
2024/01/20 07:30:58;;;;;;;17.90;10.07;;;0.60;99.90;;;;;;5157705;28;20517;-49
2024/01/20 07:33:29;;;;;;;19.90;10.33;;;0.80;99.90;;;;;;5155113;28;20443;-50
2024/01/20 07:36:00;;;;;;;18.17;9.27;;;0.90;99.90;;;;;;5157174;28;20189;-49
2024/01/20 07:38:30;;;;;;;20.83;9.70;;;1.00;99.90;;;;;;5159106;28;20247;-50
2024/01/20 07:41:02;;;;;;;21.33;9.77;;;0.90;99.90;;;;;;5154401;28;20432;-50
2024/01/20 07:43:32;;;;;;;13.57;9.20;;;1.00;99.90;;;;;;5156730;28;20671;-50
2024/01/20 07:46:03;;;;;;;18.93;10.73;;;1.10;99.90;;;;;;5149505;28;20472;-49
2024/01/20 07:48:34;;;;;;;16.17;10.23;;;1.10;99.90;;;;;;5155318;28;20204;-50
2024/01/20 07:51:04;;;;;;;21.23;9.60;;;1.10;99.90;;;;;;5156195;28;20436;-50
2024/01/20 07:53:35;;;;;;;20.00;10.57;;;1.20;99.90;;;;;;5157171;28;20555;-49
2024/01/20 07:56:09;;;;;;;15.90;10.23;;;1.20;99.90;;;;;;5156720;28;20185;-49
2024/01/20 07:58:39;;;;;;;17.23;9.63;;;1.20;99.90;;;;;;5154939;28;20196;-48
2024/01/20 08:01:10;;;;;;;23.13;10.57;;;1.20;99.90;;;;;;5155067;28;20445;-49
2024/01/20 08:03:41;;;;;;;15.20;9.87;;;1.20;99.90;;;;;;5153193;28;20236;-49
2024/01/20 08:06:11;;;;;;;15.60;9.93;;;1.20;99.90;;;;;;5150481;28;20189;-49
2024/01/20 08:08:44;;;;;;;17.47;9.50;;;1.40;99.90;;;;;;5148852;28;20205;-49
2024/01/20 08:11:14;;;;;;;20.70;9.83;;;1.40;99.90;;;;;;5154408;28;20613;-48
2024/01/20 08:13:45;;;;;;;16.77;9.43;;;1.40;99.90;;;;;;5152812;28;20456;-48
2024/01/20 08:16:16;;;;;;;16.63;10.23;;;1.40;99.90;;;;;;5157527;28;20562;-50
2024/01/20 08:18:46;;;;;;;17.73;9.07;;;1.40;99.90;;;;;;5154533;28;20685;-49
2024/01/20 08:21:20;;;;;;;19.93;9.60;;;1.40;99.90;;;;;;5153260;28;20216;-49
2024/01/20 08:23:51;;;;;;;17.07;10.10;;;1.50;99.90;;;;;;5160807;28;20277;-49
2024/01/20 08:26:21;;;;;;;25.57;10.20;;;1.70;99.90;;;;;;5159061;28;20444;-50
2024/01/20 08:28:52;;;;;;;22.43;10.50;;;1.60;99.90;;;;;;5153338;28;20558;-49
2024/01/20 08:31:23;;;;;;;27.60;10.20;;;1.60;99.90;;;;;;5150934;28;20185;-48
2024/01/20 08:33:54;;;;;;;20.30;10.50;;;1.70;99.90;;;;;;5158362;28;20338;-49
2024/01/20 08:36:24;;;;;;;20.47;10.00;;;1.70;99.90;;;;;;5155561;28;20185;-50
2024/01/20 08:38:55;;;;;;;16.00;9.40;;;1.70;99.90;;;;;;5155842;28;20528;-48
2024/01/20 08:41:25;;;;;;;17.73;9.90;;;1.70;99.90;;;;;;5153643;28;20195;-48
2024/01/20 08:43:56;;;;;;;20.83;10.13;;;1.70;99.90;;;;;;5154434;28;20642;-49
2024/01/20 08:46:27;;;;;;;13.23;9.80;;;1.80;99.90;;;;;;5156463;28;20186;-51
2024/01/20 08:48:57;;;;;;;15.60;8.50;;;1.80;99.90;;;;;;5156031;28;20201;-49
2024/01/20 08:51:28;;;;;;;14.90;9.20;;;1.90;99.90;;;;;;5157741;28;20200;-49
2024/01/20 08:53:58;;;;;;;16.00;8.90;;;1.80;99.90;;;;;;5154913;28;20198;-49
2024/01/20 08:56:29;;;;;;;17.43;8.93;;;1.80;99.90;;;;;;5157686;28;20189;-48
2024/01/20 08:59:00;;;;;;;18.10;9.77;;;1.80;99.90;;;;;;5156775;28;20210;-49
2024/01/20 09:01:30;;;;;;;13.73;8.80;;;1.70;99.90;;;;;;5158294;28;20288;-49
2024/01/20 09:04:01;;;;;;;12.40;9.07;;;1.80;99.90;;;;;;5156145;28;20220;-48
2024/01/20 09:06:32;;;;;;;21.80;10.07;;;1.90;99.90;;;;;;5156454;28;21639;-49
2024/01/20 09:09:02;;;;;;;17.70;9.13;;;2.00;99.90;;;;;;5159087;28;20209;-49
2024/01/20 09:11:33;;;;;;;13.17;8.30;;;2.10;99.90;;;;;;5158097;28;20184;-52
2024/01/20 09:14:04;;;;;;;11.37;8.20;;;2.20;99.90;;;;;;5148605;28;20185;-49
2024/01/20 09:16:35;;;;;;;12.53;8.53;;;2.20;99.90;;;;;;5153429;28;20200;-50
2024/01/20 09:19:06;;;;;;;13.97;8.17;;;2.20;99.90;;;;;;5153145;28;20468;-49
2024/01/20 09:21:36;;;;;;;11.00;8.43;;;2.20;99.90;;;;;;5156841;28;20554;-51
2024/01/20 09:24:07;;;;;;;17.20;9.47;;;2.20;99.90;;;;;;5143608;28;20201;-50
2024/01/20 09:26:38;;;;;;;20.40;8.37;;;2.20;99.90;;;;;;5157080;28;20516;-50
2024/01/20 09:29:08;;;;;;;17.10;9.60;;;2.40;99.90;;;;;;5157446;28;20521;-49
2024/01/20 09:31:39;;;;;;;21.33;9.53;;;2.40;99.90;;;;;;5156355;28;20207;-49
2024/01/20 09:34:10;;;;;;;12.00;7.43;;;2.30;99.90;;;;;;5155870;28;20539;-48
2024/01/20 09:36:41;;;;;;;12.57;7.93;;;2.40;99.90;;;;;;5152719;28;20198;-50
2024/01/20 09:39:12;;;;;;;26.77;8.40;;;2.60;99.90;;;;;;5151220;28;20852;-49
2024/01/20 09:41:43;;;;;;;18.77;8.93;;;2.50;99.90;;;;;;5153978;28;20246;-49
2024/01/20 09:44:15;;;;;;;16.03;8.40;;;2.50;99.90;;;;;;5156035;28;20213;-50
2024/01/20 09:46:45;;;;;;;18.57;8.00;;;2.60;99.90;;;;;;5153392;28;20471;-50
2024/01/20 09:49:16;;;;;;;14.93;7.70;;;2.50;99.90;;;;;;5153625;28;20460;-49
2024/01/20 09:51:53;;;;;;;9.47;7.70;;;2.40;99.90;;;;;;5156415;28;20185;-49
2024/01/20 09:54:25;;;;;;;21.10;8.30;;;2.30;99.90;;;;;;5159247;28;20296;-50
2024/01/20 09:56:55;;;;;;;20.10;9.30;;;2.30;99.90;;;;;;5157290;28;20456;-49
2024/01/20 09:59:27;;;;;;;12.43;8.23;;;2.40;99.90;;;;;;5153150;28;20818;-48
2024/01/20 10:01:58;;;;;;;10.63;7.10;;;2.50;99.90;;;;;;5154999;28;20193;-48
2024/01/20 10:04:29;;;;;;;9.30;7.70;;;2.60;99.90;;;;;;5155473;28;20532;-48
2024/01/20 10:07:00;;;;;;;22.83;9.10;;;2.50;99.90;;;;;;5155964;28;20468;-50
2024/01/20 10:09:31;;;;;;;13.83;7.57;;;2.60;99.90;;;;;;5157404;28;20863;-50
2024/01/20 10:12:02;;;;;;;14.40;8.20;;;2.60;99.90;;;;;;5156376;28;20261;-50
2024/01/20 10:14:32;;;;;;;10.87;7.13;;;2.60;99.90;;;;;;5156773;28;20265;-50
2024/01/20 10:17:03;;;;;;;13.90;8.27;;;2.50;99.90;;;;;;5234949;28;21076;-49
2024/01/20 10:19:34;;;;;;;13.00;7.73;;;2.60;99.90;;;;;;5153646;28;20241;-50
2024/01/20 10:22:12;;;;;;;13.50;8.23;;;2.70;99.90;;;;;;5152117;28;20186;-48
2024/01/20 10:24:52;;;;;;;11.93;7.70;;;2.70;99.90;;;;;;5154265;28;20209;-49
2024/01/20 10:27:23;;;;;;;14.53;8.50;;;2.90;99.90;;;;;;5152440;28;20832;-50
2024/01/20 10:29:54;;;;;;;13.30;8.20;;;2.90;99.90;;;;;;5151025;28;20447;-50
2024/01/20 10:32:24;;;;;;;15.23;7.80;;;3.10;99.90;;;;;;5151206;28;20444;-50
2024/01/20 10:34:55;;;;;;;10.30;7.50;;;3.20;99.90;;;;;;5151259;28;20251;-49
2024/01/20 10:37:30;;;;;;;19.23;8.73;;;3.20;99.90;;;;;;5155580;28;21171;-50
2024/01/20 10:40:03;;;;;;;11.57;8.10;;;3.10;99.90;;;;;;5184510;22;20598;-51
2024/01/20 10:42:37;;;;;;;17.30;7.50;;;3.00;99.90;;;;;;5224672;28;20479;-52
2024/01/20 10:45:17;;;;;;;13.23;7.63;;;3.10;99.90;;;;;;5220330;28;20428;-51
2024/01/20 10:47:50;;;;;;;14.63;8.07;;;3.20;99.90;;;;;;5216312;28;20571;-53
2024/01/20 10:50:23;;;;;;;16.90;8.83;;;3.00;99.90;;;;;;5238254;28;20460;-53
2024/01/20 10:52:55;;;;;;;16.57;8.07;;;2.90;99.90;;;;;;5233695;28;20448;-53
2024/01/20 10:55:25;;;;;;;17.47;8.17;;;2.80;99.90;;;;;;5236974;28;20440;-53
2024/01/20 10:57:58;;;;;;;17.63;8.60;;;2.80;99.90;;;;;;5239728;28;20440;-52
2024/01/20 11:00:30;;;;;;;8.33;7.43;;;2.80;99.90;;;;;;5240859;28;20259;-52
2024/01/20 11:03:01;;;;;;;15.97;8.97;;;2.80;99.90;;;;;;5239476;28;20457;-53
2024/01/20 11:05:32;;;;;;;14.17;8.50;;;3.00;99.90;;;;;;5242396;28;20518;-52
2024/01/20 11:08:05;;;;;;;13.73;8.70;;;3.00;99.90;;;;;;5239660;28;20418;-52
2024/01/20 11:10:45;;;;;;;19.23;8.37;;;3.00;99.90;;;;;;5240883;28;20460;-53
2024/01/20 11:13:15;;;;;;;15.87;8.20;;;3.00;99.90;;;;;;5240808;28;20584;-54
2024/01/20 11:15:51;;;;;;;17.80;8.10;;;3.10;99.90;;;;;;5255984;28;20781;-53
2024/01/20 11:18:23;;;;;;;12.03;8.53;;;3.30;99.90;;;;;;5238488;28;20189;-51
2024/01/20 11:21:04;;;;;;;12.40;7.30;;;3.50;99.90;;;;;;5221109;28;20805;-53
2024/01/20 11:23:34;;;;;;;13.50;8.20;;;3.40;99.90;;;;;;5241746;28;20448;-55
2024/01/20 11:26:12;;;;;;;19.70;8.70;;;3.40;99.90;;;;;;5238896;28;20421;-53
2024/01/20 11:28:43;;;;;;;12.60;7.80;;;3.40;99.90;;;;;;5240889;28;20236;-53
2024/01/20 11:31:20;;;;;;;10.13;7.27;;;3.50;99.90;;;;;;5242303;28;20457;-53
2024/01/20 11:33:51;;;;;;;20.47;9.33;;;3.60;99.90;;;;;;5238701;28;20609;-52
2024/01/20 11:36:22;;;;;;;20.23;8.57;;;3.60;99.90;;;;;;5238680;28;20533;-51
2024/01/20 11:38:53;;;;;;;10.03;7.43;;;3.60;99.90;;;;;;5239877;28;20272;-53
2024/01/20 11:41:24;;;;;;;21.40;7.70;;;3.60;99.90;;;;;;5225876;28;20298;-50
2024/01/20 11:43:55;;;;;;;20.90;9.10;;;3.60;99.90;;;;;;5232867;28;20472;-52
2024/01/20 11:46:26;;;;;;;19.97;8.60;;;3.40;99.90;;;;;;5236372;28;20454;-52
2024/01/20 11:48:56;;;;;;;16.13;8.10;;;3.50;99.90;;;;;;5234652;28;20180;-50
2024/01/20 11:51:27;;;;;;;16.10;8.53;;;3.50;99.90;;;;;;5238384;28;20201;-52
2024/01/20 11:53:58;;;;;;;17.93;7.97;;;3.70;99.90;;;;;;5241368;28;20558;-52
2024/01/20 11:56:28;;;;;;;22.43;8.47;;;3.80;99.90;;;;;;5243248;28;20183;-50
2024/01/20 11:58:59;;;;;;;16.00;7.93;;;3.80;99.90;;;;;;5243890;28;20270;-51
2024/01/20 12:01:29;;;;;;;19.23;8.73;;;3.70;99.90;;;;;;5243333;28;20210;-52
2024/01/20 12:04:00;;;;;;;14.70;7.13;;;3.60;99.90;;;;;;5241221;28;20210;-52
2024/01/20 12:06:31;;;;;;;14.93;8.43;;;3.50;99.90;;;;;;5234125;28;20192;-51
2024/01/20 12:09:03;;;;;;;18.23;7.67;;;3.60;99.90;;;;;;5228382;28;20324;-51
2024/01/20 12:11:34;;;;;;;14.77;7.23;;;3.60;99.90;;;;;;5241870;28;20210;-53
2024/01/20 12:14:08;;;;;;;16.43;8.63;;;3.60;99.90;;;;;;5244272;28;21413;-53
2024/01/20 12:16:38;;;;;;;19.30;8.33;;;3.60;99.90;;;;;;5245667;28;20647;-52
2024/01/20 12:19:09;;;;;;;14.20;7.23;;;3.60;99.90;;;;;;5244096;28;20449;-53
2024/01/20 12:21:40;;;;;;;14.60;8.17;;;3.30;99.90;;;;;;5242127;28;20440;-51
2024/01/20 12:24:12;;;;;;;8.80;6.93;;;3.30;99.90;;;;;;5239117;28;20655;-53
2024/01/20 12:26:43;;;;;;;18.00;7.67;;;3.30;99.90;;;;;;5243860;28;20250;-50
2024/01/20 12:29:13;;;;;;;12.50;7.77;;;3.20;99.90;;;;;;5241591;28;20428;-52
2024/01/20 12:31:44;;;;;;;15.33;6.97;;;3.20;99.90;;;;;;5243400;28;20424;-50
2024/01/20 12:34:16;;;;;;;14.87;7.17;;;3.40;99.90;;;;;;5246861;28;20190;-53
2024/01/20 12:36:46;;;;;;;12.90;8.40;;;3.30;99.90;;;;;;5244314;28;20240;-52
2024/01/20 12:39:18;;;;;;;12.50;6.57;;;3.30;99.90;;;;;;5238598;28;20449;-52
2024/01/20 12:41:49;;;;;;;14.50;7.10;;;3.40;99.90;;;;;;5236931;28;20200;-52
2024/01/20 12:44:20;;;;;;;12.80;8.30;;;3.40;99.90;;;;;;5246527;28;20464;-50
2024/01/20 12:46:52;;;;;;;15.20;7.20;;;3.60;99.90;;;;;;5231250;28;20456;-52
2024/01/20 12:49:23;;;;;;;17.50;6.93;;;3.70;99.90;;;;;;5240180;28;20843;-51
2024/01/20 12:51:54;;;;;;;12.37;7.50;;;3.80;99.90;;;;;;5240051;28;20465;-51
2024/01/20 12:54:24;;;;;;;11.77;6.27;;;3.80;99.90;;;;;;5232367;28;20219;-53
2024/01/20 12:56:55;;;;;;;8.93;6.10;;;3.90;99.90;;;;;;5241001;28;20196;-50
2024/01/20 12:59:25;;;;;;;9.20;6.60;;;3.80;99.90;;;;;;5246155;28;20238;-52
2024/01/20 13:01:56;;;;;;;18.50;5.90;;;3.70;99.90;;;;;;5243727;28;20180;-51
2024/01/20 13:04:27;;;;;;;12.10;6.50;;;3.60;99.90;;;;;;5237992;28;20215;-52